sensor_id;sensor_type;location;lat;lon;timestamp;temperature;humidity
4453;DHT22;2239;48.152;11.584;2023-11-19T00:01:27;4.80;99.90
4453;DHT22;2239;48.152;11.584;2023-11-19T00:03:52;4.80;99.90
4453;DHT22;2239;48.152;11.584;2023-11-19T00:06:18;4.80;99.90
4453;DHT22;2239;48.152;11.584;2023-11-19T00:08:44;4.80;99.90
4453;DHT22;2239;48.152;11.584;2023-11-19T00:11:10;4.80;99.90
4453;DHT22;2239;48.152;11.584;2023-11-19T00:13:36;4.90;99.90
4453;DHT22;2239;48.152;11.584;2023-11-19T00:16:02;4.90;99.90
4453;DHT22;2239;48.152;11.584;2023-11-19T00:18:29;5.00;99.90
4453;DHT22;2239;48.152;11.584;2023-11-19T00:20:55;4.90;99.90
4453;DHT22;2239;48.152;11.584;2023-11-19T00:23:20;4.90;99.90
4453;DHT22;2239;48.152;11.584;2023-11-19T00:25:46;5.00;99.90
4453;DHT22;2239;48.152;11.584;2023-11-19T00:28:13;5.00;99.90
4453;DHT22;2239;48.152;11.584;2023-11-19T00:30:38;5.00;99.90
4453;DHT22;2239;48.152;11.584;2023-11-19T00:33:06;5.00;99.90
4453;DHT22;2239;48.152;11.584;2023-11-19T00:35:31;5.10;99.90
4453;DHT22;2239;48.152;11.584;2023-11-19T00:37:58;5.10;99.90
4453;DHT22;2239;48.152;11.584;2023-11-19T00:40:23;5.10;99.90
4453;DHT22;2239;48.152;11.584;2023-11-19T00:42:49;5.20;99.90
4453;DHT22;2239;48.152;11.584;2023-11-19T00:45:15;5.20;99.90
4453;DHT22;2239;48.152;11.584;2023-11-19T00:47:41;5.30;99.90
4453;DHT22;2239;48.152;11.584;2023-11-19T00:50:07;5.30;99.90
4453;DHT22;2239;48.152;11.584;2023-11-19T00:52:36;5.40;99.90
4453;DHT22;2239;48.152;11.584;2023-11-19T00:55:03;5.40;99.90
4453;DHT22;2239;48.152;11.584;2023-11-19T00:57:30;5.40;99.90
4453;DHT22;2239;48.152;11.584;2023-11-19T00:59:55;5.50;99.90
4453;DHT22;2239;48.152;11.584;2023-11-19T01:02:21;5.50;99.90
4453;DHT22;2239;48.152;11.584;2023-11-19T01:04:46;5.50;99.90
4453;DHT22;2239;48.152;11.584;2023-11-19T01:07:12;5.50;99.90
4453;DHT22;2239;48.152;11.584;2023-11-19T01:09:38;5.60;99.90
4453;DHT22;2239;48.152;11.584;2023-11-19T01:12:04;5.60;99.90
4453;DHT22;2239;48.152;11.584;2023-11-19T01:14:30;5.60;99.90
4453;DHT22;2239;48.152;11.584;2023-11-19T01:16:56;5.70;99.90
4453;DHT22;2239;48.152;11.584;2023-11-19T01:19:22;5.70;99.90
4453;DHT22;2239;48.152;11.584;2023-11-19T01:21:48;5.70;99.90
4453;DHT22;2239;48.152;11.584;2023-11-19T01:24:14;5.80;99.90
4453;DHT22;2239;48.152;11.584;2023-11-19T01:26:40;5.80;99.90
4453;DHT22;2239;48.152;11.584;2023-11-19T01:29:14;5.80;99.90
4453;DHT22;2239;48.152;11.584;2023-11-19T01:31:43;5.80;99.90
4453;DHT22;2239;48.152;11.584;2023-11-19T01:34:10;5.70;99.90
4453;DHT22;2239;48.152;11.584;2023-11-19T01:36:36;5.70;99.90
4453;DHT22;2239;48.152;11.584;2023-11-19T01:39:02;5.80;99.90
4453;DHT22;2239;48.152;11.584;2023-11-19T01:41:36;5.80;99.90
4453;DHT22;2239;48.152;11.584;2023-11-19T01:44:02;5.80;99.90
4453;DHT22;2239;48.152;11.584;2023-11-19T01:46:28;5.80;99.90
4453;DHT22;2239;48.152;11.584;2023-11-19T01:48:54;5.90;99.90
4453;DHT22;2239;48.152;11.584;2023-11-19T01:51:21;5.90;99.90
4453;DHT22;2239;48.152;11.584;2023-11-19T01:53:48;5.90;99.90
4453;DHT22;2239;48.152;11.584;2023-11-19T01:56:15;6.00;99.90
4453;DHT22;2239;48.152;11.584;2023-11-19T01:58:42;6.00;99.90
4453;DHT22;2239;48.152;11.584;2023-11-19T02:01:09;6.10;99.90
4453;DHT22;2239;48.152;11.584;2023-11-19T02:03:36;6.10;99.90
4453;DHT22;2239;48.152;11.584;2023-11-19T02:06:03;6.10;99.90
4453;DHT22;2239;48.152;11.584;2023-11-19T02:08:32;6.20;99.90
4453;DHT22;2239;48.152;11.584;2023-11-19T02:10:57;6.20;99.90
4453;DHT22;2239;48.152;11.584;2023-11-19T02:13:24;6.30;99.90
4453;DHT22;2239;48.152;11.584;2023-11-19T02:15:50;6.30;99.90
4453;DHT22;2239;48.152;11.584;2023-11-19T02:18:26;6.40;99.90
4453;DHT22;2239;48.152;11.584;2023-11-19T02:20:59;6.40;99.90
4453;DHT22;2239;48.152;11.584;2023-11-19T02:23:27;6.40;99.90
4453;DHT22;2239;48.152;11.584;2023-11-19T02:28:41;6.40;99.90
4453;DHT22;2239;48.152;11.584;2023-11-19T02:31:08;6.40;99.90
4453;DHT22;2239;48.152;11.584;2023-11-19T02:33:39;6.50;99.90
4453;DHT22;2239;48.152;11.584;2023-11-19T02:36:06;6.50;99.90
4453;DHT22;2239;48.152;11.584;2023-11-19T02:38:33;6.60;99.90
4453;DHT22;2239;48.152;11.584;2023-11-19T02:40:59;6.60;99.90
4453;DHT22;2239;48.152;11.584;2023-11-19T02:43:27;6.60;99.90
4453;DHT22;2239;48.152;11.584;2023-11-19T02:45:53;6.70;99.90
4453;DHT22;2239;48.152;11.584;2023-11-19T02:48:21;6.70;99.90
4453;DHT22;2239;48.152;11.584;2023-11-19T02:50:46;6.70;99.90
4453;DHT22;2239;48.152;11.584;2023-11-19T02:53:13;6.80;99.90
4453;DHT22;2239;48.152;11.584;2023-11-19T02:55:38;6.80;99.90
4453;DHT22;2239;48.152;11.584;2023-11-19T02:58:06;6.90;99.90
4453;DHT22;2239;48.152;11.584;2023-11-19T03:00:45;6.90;99.90
4453;DHT22;2239;48.152;11.584;2023-11-19T03:03:17;7.00;99.90
4453;DHT22;2239;48.152;11.584;2023-11-19T03:05:46;6.90;99.90
4453;DHT22;2239;48.152;11.584;2023-11-19T03:08:12;6.90;99.90
4453;DHT22;2239;48.152;11.584;2023-11-19T03:10:38;6.90;99.90
4453;DHT22;2239;48.152;11.584;2023-11-19T03:13:04;6.90;99.90
4453;DHT22;2239;48.152;11.584;2023-11-19T03:15:29;7.00;99.90
4453;DHT22;2239;48.152;11.584;2023-11-19T03:17:55;7.00;99.90
4453;DHT22;2239;48.152;11.584;2023-11-19T03:20:20;7.00;99.90
4453;DHT22;2239;48.152;11.584;2023-11-19T03:22:46;7.00;99.90
4453;DHT22;2239;48.152;11.584;2023-11-19T03:25:12;7.00;99.90
4453;DHT22;2239;48.152;11.584;2023-11-19T03:27:39;7.10;99.90
4453;DHT22;2239;48.152;11.584;2023-11-19T03:30:08;7.20;99.90
4453;DHT22;2239;48.152;11.584;2023-11-19T03:32:37;7.20;99.90
4453;DHT22;2239;48.152;11.584;2023-11-19T03:35:04;7.20;99.90
4453;DHT22;2239;48.152;11.584;2023-11-19T03:37:32;7.20;99.90
4453;DHT22;2239;48.152;11.584;2023-11-19T03:39:58;7.20;99.90
4453;DHT22;2239;48.152;11.584;2023-11-19T03:42:26;7.20;99.90
4453;DHT22;2239;48.152;11.584;2023-11-19T03:44:52;7.20;99.90
4453;DHT22;2239;48.152;11.584;2023-11-19T03:47:18;7.30;99.90
4453;DHT22;2239;48.152;11.584;2023-11-19T03:49:48;7.30;99.90
4453;DHT22;2239;48.152;11.584;2023-11-19T03:52:14;7.40;99.90
4453;DHT22;2239;48.152;11.584;2023-11-19T03:54:39;7.40;99.90
4453;DHT22;2239;48.152;11.584;2023-11-19T03:57:05;7.50;99.90
4453;DHT22;2239;48.152;11.584;2023-11-19T03:59:31;7.60;99.90
4453;DHT22;2239;48.152;11.584;2023-11-19T04:01:56;7.70;99.90
4453;DHT22;2239;48.152;11.584;2023-11-19T04:04:22;7.80;99.90
4453;DHT22;2239;48.152;11.584;2023-11-19T04:06:48;7.90;99.90
4453;DHT22;2239;48.152;11.584;2023-11-19T04:09:14;8.10;99.90
4453;DHT22;2239;48.152;11.584;2023-11-19T04:11:39;8.20;99.90
4453;DHT22;2239;48.152;11.584;2023-11-19T04:14:05;8.20;99.90
4453;DHT22;2239;48.152;11.584;2023-11-19T04:16:31;8.30;99.90
4453;DHT22;2239;48.152;11.584;2023-11-19T04:18:56;8.40;99.90
4453;DHT22;2239;48.152;11.584;2023-11-19T04:21:22;8.40;99.90
4453;DHT22;2239;48.152;11.584;2023-11-19T04:23:49;8.50;99.90
4453;DHT22;2239;48.152;11.584;2023-11-19T04:26:15;8.50;99.90
4453;DHT22;2239;48.152;11.584;2023-11-19T04:28:41;8.60;99.90
4453;DHT22;2239;48.152;11.584;2023-11-19T04:31:06;8.60;99.90
4453;DHT22;2239;48.152;11.584;2023-11-19T04:33:32;8.70;99.90
4453;DHT22;2239;48.152;11.584;2023-11-19T04:35:58;8.70;99.90
4453;DHT22;2239;48.152;11.584;2023-11-19T04:38:23;8.70;99.90
4453;DHT22;2239;48.152;11.584;2023-11-19T04:40:49;8.80;99.90
4453;DHT22;2239;48.152;11.584;2023-11-19T04:43:14;8.80;99.90
4453;DHT22;2239;48.152;11.584;2023-11-19T04:45:40;8.80;99.90
4453;DHT22;2239;48.152;11.584;2023-11-19T04:48:06;8.90;99.90
4453;DHT22;2239;48.152;11.584;2023-11-19T04:50:32;8.90;99.90
4453;DHT22;2239;48.152;11.584;2023-11-19T04:52:57;9.00;99.90
4453;DHT22;2239;48.152;11.584;2023-11-19T04:55:23;9.00;99.90
4453;DHT22;2239;48.152;11.584;2023-11-19T04:57:48;9.10;99.90
4453;DHT22;2239;48.152;11.584;2023-11-19T05:00:14;9.10;99.90
4453;DHT22;2239;48.152;11.584;2023-11-19T05:02:40;9.20;99.90
4453;DHT22;2239;48.152;11.584;2023-11-19T05:05:05;9.30;99.90
4453;DHT22;2239;48.152;11.584;2023-11-19T05:07:31;9.30;99.90
4453;DHT22;2239;48.152;11.584;2023-11-19T05:09:57;9.30;99.90
4453;DHT22;2239;48.152;11.584;2023-11-19T05:12:23;9.30;99.90
4453;DHT22;2239;48.152;11.584;2023-11-19T05:14:48;9.30;99.90
4453;DHT22;2239;48.152;11.584;2023-11-19T05:17:19;9.40;99.90
4453;DHT22;2239;48.152;11.584;2023-11-19T05:19:45;9.40;99.90
4453;DHT22;2239;48.152;11.584;2023-11-19T05:22:11;9.40;99.90
4453;DHT22;2239;48.152;11.584;2023-11-19T05:24:38;9.40;99.90
4453;DHT22;2239;48.152;11.584;2023-11-19T05:27:04;9.40;99.90
4453;DHT22;2239;48.152;11.584;2023-11-19T05:29:30;9.40;99.90
4453;DHT22;2239;48.152;11.584;2023-11-19T05:31:56;9.50;99.90
4453;DHT22;2239;48.152;11.584;2023-11-19T05:34:21;9.50;99.90
4453;DHT22;2239;48.152;11.584;2023-11-19T05:36:47;9.50;99.90
4453;DHT22;2239;48.152;11.584;2023-11-19T05:39:12;9.50;99.90
4453;DHT22;2239;48.152;11.584;2023-11-19T05:41:38;9.50;99.90
4453;DHT22;2239;48.152;11.584;2023-11-19T05:44:04;9.50;99.90
4453;DHT22;2239;48.152;11.584;2023-11-19T05:46:30;9.50;99.90
4453;DHT22;2239;48.152;11.584;2023-11-19T05:48:55;9.50;99.90
4453;DHT22;2239;48.152;11.584;2023-11-19T05:51:21;9.60;99.90
4453;DHT22;2239;48.152;11.584;2023-11-19T05:53:46;9.60;99.90
4453;DHT22;2239;48.152;11.584;2023-11-19T05:56:12;9.60;99.90
4453;DHT22;2239;48.152;11.584;2023-11-19T05:58:37;9.60;99.90
4453;DHT22;2239;48.152;11.584;2023-11-19T06:01:05;9.60;99.90
4453;DHT22;2239;48.152;11.584;2023-11-19T06:03:32;9.60;99.90
4453;DHT22;2239;48.152;11.584;2023-11-19T06:05:58;9.60;99.90
4453;DHT22;2239;48.152;11.584;2023-11-19T06:08:24;9.60;99.90
4453;DHT22;2239;48.152;11.584;2023-11-19T06:10:52;9.60;99.90
4453;DHT22;2239;48.152;11.584;2023-11-19T06:13:18;9.60;99.90
4453;DHT22;2239;48.152;11.584;2023-11-19T06:15:43;9.60;99.90
4453;DHT22;2239;48.152;11.584;2023-11-19T06:18:09;9.70;99.90
4453;DHT22;2239;48.152;11.584;2023-11-19T06:20:37;9.60;99.90
4453;DHT22;2239;48.152;11.584;2023-11-19T06:23:02;9.60;99.90
4453;DHT22;2239;48.152;11.584;2023-11-19T06:25:28;9.60;99.90
4453;DHT22;2239;48.152;11.584;2023-11-19T06:27:54;9.70;99.90
4453;DHT22;2239;48.152;11.584;2023-11-19T06:30:19;9.70;99.90
4453;DHT22;2239;48.152;11.584;2023-11-19T06:32:46;9.70;99.90
4453;DHT22;2239;48.152;11.584;2023-11-19T06:35:12;9.80;99.90
4453;DHT22;2239;48.152;11.584;2023-11-19T06:37:39;9.80;99.90
4453;DHT22;2239;48.152;11.584;2023-11-19T06:40:05;9.90;99.90
4453;DHT22;2239;48.152;11.584;2023-11-19T06:42:32;9.80;99.90
4453;DHT22;2239;48.152;11.584;2023-11-19T06:44:58;9.80;99.90
4453;DHT22;2239;48.152;11.584;2023-11-19T06:47:27;9.90;99.90
4453;DHT22;2239;48.152;11.584;2023-11-19T06:49:53;9.90;99.90
4453;DHT22;2239;48.152;11.584;2023-11-19T06:52:19;9.90;99.90
4453;DHT22;2239;48.152;11.584;2023-11-19T06:54:45;10.00;99.90
4453;DHT22;2239;48.152;11.584;2023-11-19T06:57:11;10.00;99.90
4453;DHT22;2239;48.152;11.584;2023-11-19T06:59:37;10.00;99.90
4453;DHT22;2239;48.152;11.584;2023-11-19T07:02:02;10.00;99.90
4453;DHT22;2239;48.152;11.584;2023-11-19T07:04:28;10.10;99.90
4453;DHT22;2239;48.152;11.584;2023-11-19T07:06:53;10.10;99.90
4453;DHT22;2239;48.152;11.584;2023-11-19T07:09:19;10.10;99.90
4453;DHT22;2239;48.152;11.584;2023-11-19T07:11:45;10.20;99.90
4453;DHT22;2239;48.152;11.584;2023-11-19T07:14:11;10.20;99.90
4453;DHT22;2239;48.152;11.584;2023-11-19T07:16:37;10.20;99.90
4453;DHT22;2239;48.152;11.584;2023-11-19T07:19:04;10.30;99.90
4453;DHT22;2239;48.152;11.584;2023-11-19T07:21:30;10.30;99.90
4453;DHT22;2239;48.152;11.584;2023-11-19T07:23:56;10.40;99.90
4453;DHT22;2239;48.152;11.584;2023-11-19T07:26:22;10.30;99.90
4453;DHT22;2239;48.152;11.584;2023-11-19T07:28:49;10.40;99.90
4453;DHT22;2239;48.152;11.584;2023-11-19T07:31:14;10.40;99.90
4453;DHT22;2239;48.152;11.584;2023-11-19T07:33:40;10.50;99.90
4453;DHT22;2239;48.152;11.584;2023-11-19T07:36:08;10.50;99.90
4453;DHT22;2239;48.152;11.584;2023-11-19T07:38:34;10.50;99.90
4453;DHT22;2239;48.152;11.584;2023-11-19T07:41:00;10.50;99.90
4453;DHT22;2239;48.152;11.584;2023-11-19T07:43:26;10.50;99.90
4453;DHT22;2239;48.152;11.584;2023-11-19T07:45:51;10.60;99.90
4453;DHT22;2239;48.152;11.584;2023-11-19T07:48:17;10.60;99.90
4453;DHT22;2239;48.152;11.584;2023-11-19T07:50:48;10.60;99.90
4453;DHT22;2239;48.152;11.584;2023-11-19T07:53:18;10.60;99.90
4453;DHT22;2239;48.152;11.584;2023-11-19T07:55:44;10.70;99.90
4453;DHT22;2239;48.152;11.584;2023-11-19T07:58:13;10.70;99.90
4453;DHT22;2239;48.152;11.584;2023-11-19T08:00:38;10.70;99.90
4453;DHT22;2239;48.152;11.584;2023-11-19T08:03:04;10.80;99.90
4453;DHT22;2239;48.152;11.584;2023-11-19T08:05:31;10.80;99.90
4453;DHT22;2239;48.152;11.584;2023-11-19T08:07:57;10.80;99.90
4453;DHT22;2239;48.152;11.584;2023-11-19T08:10:23;10.80;99.90
4453;DHT22;2239;48.152;11.584;2023-11-19T08:12:48;10.80;99.90
4453;DHT22;2239;48.152;11.584;2023-11-19T08:15:14;10.90;99.90
4453;DHT22;2239;48.152;11.584;2023-11-19T08:17:41;10.90;99.90
4453;DHT22;2239;48.152;11.584;2023-11-19T08:20:07;10.90;99.90
4453;DHT22;2239;48.152;11.584;2023-11-19T08:22:36;11.00;99.90
4453;DHT22;2239;48.152;11.584;2023-11-19T08:25:02;11.00;99.90
4453;DHT22;2239;48.152;11.584;2023-11-19T08:27:29;11.00;99.90
4453;DHT22;2239;48.152;11.584;2023-11-19T08:29:55;11.10;99.90
4453;DHT22;2239;48.152;11.584;2023-11-19T08:32:26;11.10;99.90
4453;DHT22;2239;48.152;11.584;2023-11-19T08:34:52;11.10;99.90
4453;DHT22;2239;48.152;11.584;2023-11-19T08:37:17;11.10;99.90
4453;DHT22;2239;48.152;11.584;2023-11-19T08:39:46;11.20;99.90
4453;DHT22;2239;48.152;11.584;2023-11-19T08:42:12;11.10;99.90
4453;DHT22;2239;48.152;11.584;2023-11-19T08:44:37;11.20;99.90
4453;DHT22;2239;48.152;11.584;2023-11-19T08:47:03;11.20;99.90
4453;DHT22;2239;48.152;11.584;2023-11-19T08:49:29;11.20;99.90
4453;DHT22;2239;48.152;11.584;2023-11-19T08:51:55;11.20;99.90
4453;DHT22;2239;48.152;11.584;2023-11-19T08:54:20;11.20;99.90
4453;DHT22;2239;48.152;11.584;2023-11-19T08:56:48;11.30;99.90
4453;DHT22;2239;48.152;11.584;2023-11-19T08:59:14;11.30;99.90
4453;DHT22;2239;48.152;11.584;2023-11-19T09:01:40;11.30;99.90
4453;DHT22;2239;48.152;11.584;2023-11-19T09:04:06;11.40;99.90
4453;DHT22;2239;48.152;11.584;2023-11-19T09:06:32;11.30;99.90
4453;DHT22;2239;48.152;11.584;2023-11-19T09:08:58;11.40;99.90
4453;DHT22;2239;48.152;11.584;2023-11-19T09:11:27;11.40;99.90
4453;DHT22;2239;48.152;11.584;2023-11-19T09:13:53;11.50;99.90
4453;DHT22;2239;48.152;11.584;2023-11-19T09:16:18;11.50;99.90
4453;DHT22;2239;48.152;11.584;2023-11-19T09:18:44;11.50;99.90
4453;DHT22;2239;48.152;11.584;2023-11-19T09:21:12;11.50;99.90
4453;DHT22;2239;48.152;11.584;2023-11-19T09:23:38;11.50;99.90
4453;DHT22;2239;48.152;11.584;2023-11-19T09:26:08;11.60;99.90
4453;DHT22;2239;48.152;11.584;2023-11-19T09:28:35;11.60;99.90
4453;DHT22;2239;48.152;11.584;2023-11-19T09:31:01;11.70;99.90
4453;DHT22;2239;48.152;11.584;2023-11-19T09:33:30;11.70;99.90
4453;DHT22;2239;48.152;11.584;2023-11-19T09:35:55;11.80;99.90
4453;DHT22;2239;48.152;11.584;2023-11-19T09:38:21;11.80;99.90
4453;DHT22;2239;48.152;11.584;2023-11-19T09:40:46;11.80;99.90
4453;DHT22;2239;48.152;11.584;2023-11-19T09:43:13;11.80;99.90
4453;DHT22;2239;48.152;11.584;2023-11-19T09:45:49;11.80;99.90
4453;DHT22;2239;48.152;11.584;2023-11-19T09:48:17;11.80;99.90
4453;DHT22;2239;48.152;11.584;2023-11-19T09:50:45;11.80;99.90
4453;DHT22;2239;48.152;11.584;2023-11-19T09:53:12;11.80;99.90
4453;DHT22;2239;48.152;11.584;2023-11-19T09:55:38;11.80;99.90
4453;DHT22;2239;48.152;11.584;2023-11-19T09:58:05;11.80;99.90
4453;DHT22;2239;48.152;11.584;2023-11-19T10:00:32;11.90;99.90
4453;DHT22;2239;48.152;11.584;2023-11-19T10:02:59;12.00;99.90
4453;DHT22;2239;48.152;11.584;2023-11-19T10:05:25;12.10;99.90
4453;DHT22;2239;48.152;11.584;2023-11-19T10:07:52;12.10;99.90
4453;DHT22;2239;48.152;11.584;2023-11-19T10:10:17;12.20;99.90
4453;DHT22;2239;48.152;11.584;2023-11-19T10:12:47;12.30;99.90
4453;DHT22;2239;48.152;11.584;2023-11-19T10:15:24;12.40;99.90
4453;DHT22;2239;48.152;11.584;2023-11-19T10:17:51;12.50;99.90
4453;DHT22;2239;48.152;11.584;2023-11-19T10:20:17;12.50;99.90
4453;DHT22;2239;48.152;11.584;2023-11-19T10:22:42;12.50;99.90
4453;DHT22;2239;48.152;11.584;2023-11-19T10:25:40;12.60;99.90
4453;DHT22;2239;48.152;11.584;2023-11-19T10:28:06;12.70;99.90
4453;DHT22;2239;48.152;11.584;2023-11-19T10:30:31;12.80;99.90
4453;DHT22;2239;48.152;11.584;2023-11-19T10:35:28;13.50;99.90
4453;DHT22;2239;48.152;11.584;2023-11-19T10:37:53;13.80;99.90
4453;DHT22;2239;48.152;11.584;2023-11-19T10:40:19;13.70;99.90
4453;DHT22;2239;48.152;11.584;2023-11-19T10:42:45;13.60;99.90
4453;DHT22;2239;48.152;11.584;2023-11-19T10:45:22;13.60;99.90
4453;DHT22;2239;48.152;11.584;2023-11-19T10:47:51;13.70;99.90
4453;DHT22;2239;48.152;11.584;2023-11-19T10:50:16;14.70;99.90
4453;DHT22;2239;48.152;11.584;2023-11-19T10:52:43;15.20;99.90
4453;DHT22;2239;48.152;11.584;2023-11-19T10:55:11;15.30;99.90
4453;DHT22;2239;48.152;11.584;2023-11-19T10:57:43;15.40;99.90
4453;DHT22;2239;48.152;11.584;2023-11-19T11:00:15;15.30;99.90
4453;DHT22;2239;48.152;11.584;2023-11-19T11:02:45;15.00;99.90
4453;DHT22;2239;48.152;11.584;2023-11-19T11:05:16;14.70;99.90
4453;DHT22;2239;48.152;11.584;2023-11-19T11:07:44;14.60;99.90
4453;DHT22;2239;48.152;11.584;2023-11-19T11:10:10;14.60;99.90
4453;DHT22;2239;48.152;11.584;2023-11-19T11:12:37;14.80;99.90
4453;DHT22;2239;48.152;11.584;2023-11-19T11:15:06;15.40;99.90
4453;DHT22;2239;48.152;11.584;2023-11-19T11:17:33;15.70;99.90
4453;DHT22;2239;48.152;11.584;2023-11-19T11:19:59;15.40;99.90
4453;DHT22;2239;48.152;11.584;2023-11-19T11:22:25;15.00;99.90
4453;DHT22;2239;48.152;11.584;2023-11-19T11:25:23;14.70;99.90
4453;DHT22;2239;48.152;11.584;2023-11-19T11:28:10;14.50;99.90
4453;DHT22;2239;48.152;11.584;2023-11-19T11:36:22;14.50;99.90
4453;DHT22;2239;48.152;11.584;2023-11-19T11:38:49;14.50;99.90
4453;DHT22;2239;48.152;11.584;2023-11-19T11:41:23;14.50;99.90
4453;DHT22;2239;48.152;11.584;2023-11-19T11:43:50;15.10;99.90
4453;DHT22;2239;48.152;11.584;2023-11-19T11:49:07;17.40;99.90
4453;DHT22;2239;48.152;11.584;2023-11-19T11:57:01;17.80;99.90
4453;DHT22;2239;48.152;11.584;2023-11-19T11:59:53;18.20;99.90
4453;DHT22;2239;48.152;11.584;2023-11-19T12:02:20;18.20;99.90
4453;DHT22;2239;48.152;11.584;2023-11-19T12:04:51;18.20;99.90
4453;DHT22;2239;48.152;11.584;2023-11-19T12:07:19;18.60;99.90
4453;DHT22;2239;48.152;11.584;2023-11-19T12:10:05;18.30;99.90
4453;DHT22;2239;48.152;11.584;2023-11-19T12:12:32;18.20;99.90
4453;DHT22;2239;48.152;11.584;2023-11-19T12:20:04;18.40;99.90
4453;DHT22;2239;48.152;11.584;2023-11-19T12:22:38;18.50;99.90
4453;DHT22;2239;48.152;11.584;2023-11-19T12:25:06;18.20;99.90
4453;DHT22;2239;48.152;11.584;2023-11-19T12:27:32;17.70;99.90
4453;DHT22;2239;48.152;11.584;2023-11-19T12:29:59;17.50;99.90
4453;DHT22;2239;48.152;11.584;2023-11-19T12:32:25;17.30;99.90
4453;DHT22;2239;48.152;11.584;2023-11-19T12:34:51;17.30;99.90
4453;DHT22;2239;48.152;11.584;2023-11-19T12:37:16;17.10;99.90
4453;DHT22;2239;48.152;11.584;2023-11-19T12:39:42;16.80;99.90
4453;DHT22;2239;48.152;11.584;2023-11-19T12:42:08;16.90;99.90
4453;DHT22;2239;48.152;11.584;2023-11-19T12:44:34;16.80;99.90
4453;DHT22;2239;48.152;11.584;2023-11-19T12:47:05;16.90;99.90
4453;DHT22;2239;48.152;11.584;2023-11-19T12:49:32;17.10;99.90
4453;DHT22;2239;48.152;11.584;2023-11-19T12:51:58;17.10;99.90
4453;DHT22;2239;48.152;11.584;2023-11-19T12:54:35;17.20;99.90
4453;DHT22;2239;48.152;11.584;2023-11-19T12:57:02;17.40;99.90
4453;DHT22;2239;48.152;11.584;2023-11-19T12:59:27;17.60;99.90
4453;DHT22;2239;48.152;11.584;2023-11-19T13:01:57;17.70;99.90
4453;DHT22;2239;48.152;11.584;2023-11-19T13:04:22;17.70;99.90
4453;DHT22;2239;48.152;11.584;2023-11-19T13:06:50;17.80;99.90
4453;DHT22;2239;48.152;11.584;2023-11-19T13:09:28;17.80;99.90
4453;DHT22;2239;48.152;11.584;2023-11-19T13:11:54;17.90;99.90
4453;DHT22;2239;48.152;11.584;2023-11-19T13:14:22;17.90;99.90
4453;DHT22;2239;48.152;11.584;2023-11-19T13:16:47;18.00;99.90
4453;DHT22;2239;48.152;11.584;2023-11-19T13:19:14;17.80;99.90
4453;DHT22;2239;48.152;11.584;2023-11-19T13:21:41;17.50;99.90
4453;DHT22;2239;48.152;11.584;2023-11-19T13:24:07;17.30;99.90
4453;DHT22;2239;48.152;11.584;2023-11-19T13:26:33;16.90;99.90
4453;DHT22;2239;48.152;11.584;2023-11-19T13:29:00;16.60;99.90
4453;DHT22;2239;48.152;11.584;2023-11-19T13:31:25;16.30;99.90
4453;DHT22;2239;48.152;11.584;2023-11-19T13:33:51;16.10;99.90
4453;DHT22;2239;48.152;11.584;2023-11-19T13:36:16;15.80;99.90
4453;DHT22;2239;48.152;11.584;2023-11-19T13:38:42;15.60;99.90
4453;DHT22;2239;48.152;11.584;2023-11-19T13:41:09;15.50;99.90
4453;DHT22;2239;48.152;11.584;2023-11-19T13:43:36;15.40;99.90
4453;DHT22;2239;48.152;11.584;2023-11-19T13:46:02;15.30;99.90
4453;DHT22;2239;48.152;11.584;2023-11-19T13:48:28;15.30;99.90
4453;DHT22;2239;48.152;11.584;2023-11-19T13:50:57;15.10;99.90
4453;DHT22;2239;48.152;11.584;2023-11-19T13:53:23;14.90;99.90
4453;DHT22;2239;48.152;11.584;2023-11-19T13:55:51;14.90;99.90
4453;DHT22;2239;48.152;11.584;2023-11-19T13:58:17;14.70;99.90
4453;DHT22;2239;48.152;11.584;2023-11-19T14:00:42;14.60;99.90
4453;DHT22;2239;48.152;11.584;2023-11-19T14:03:09;14.60;99.90
4453;DHT22;2239;48.152;11.584;2023-11-19T14:05:38;14.50;99.90
4453;DHT22;2239;48.152;11.584;2023-11-19T14:08:04;14.50;99.90
4453;DHT22;2239;48.152;11.584;2023-11-19T14:10:37;14.50;99.90
4453;DHT22;2239;48.152;11.584;2023-11-19T14:13:04;14.50;99.90
4453;DHT22;2239;48.152;11.584;2023-11-19T14:15:30;14.40;99.90
4453;DHT22;2239;48.152;11.584;2023-11-19T14:17:56;14.40;99.90
4453;DHT22;2239;48.152;11.584;2023-11-19T14:20:22;14.40;99.90
4453;DHT22;2239;48.152;11.584;2023-11-19T14:22:48;14.40;99.90
4453;DHT22;2239;48.152;11.584;2023-11-19T14:25:15;14.30;99.90
4453;DHT22;2239;48.152;11.584;2023-11-19T14:27:42;14.30;99.90
4453;DHT22;2239;48.152;11.584;2023-11-19T14:30:12;14.20;99.90
4453;DHT22;2239;48.152;11.584;2023-11-19T14:32:39;14.20;99.90
4453;DHT22;2239;48.152;11.584;2023-11-19T14:35:05;14.20;99.90
4453;DHT22;2239;48.152;11.584;2023-11-19T14:37:31;14.10;99.90
4453;DHT22;2239;48.152;11.584;2023-11-19T14:39:57;14.10;99.90
4453;DHT22;2239;48.152;11.584;2023-11-19T14:42:23;14.10;99.90
4453;DHT22;2239;48.152;11.584;2023-11-19T14:44:50;14.10;99.90
4453;DHT22;2239;48.152;11.584;2023-11-19T14:47:18;14.10;99.90
4453;DHT22;2239;48.152;11.584;2023-11-19T14:49:44;14.10;99.90
4453;DHT22;2239;48.152;11.584;2023-11-19T14:52:09;14.10;99.90
4453;DHT22;2239;48.152;11.584;2023-11-19T14:54:35;14.20;99.90
4453;DHT22;2239;48.152;11.584;2023-11-19T14:57:01;14.20;99.90
4453;DHT22;2239;48.152;11.584;2023-11-19T14:59:27;14.00;99.90
4453;DHT22;2239;48.152;11.584;2023-11-19T15:01:53;14.00;99.90
4453;DHT22;2239;48.152;11.584;2023-11-19T15:04:19;14.00;99.90
4453;DHT22;2239;48.152;11.584;2023-11-19T15:06:44;13.90;99.90
4453;DHT22;2239;48.152;11.584;2023-11-19T15:09:10;13.80;99.90
4453;DHT22;2239;48.152;11.584;2023-11-19T15:11:41;13.80;99.90
4453;DHT22;2239;48.152;11.584;2023-11-19T15:14:07;13.70;99.90
4453;DHT22;2239;48.152;11.584;2023-11-19T15:16:32;13.70;99.90
4453;DHT22;2239;48.152;11.584;2023-11-19T15:18:59;13.60;99.90
4453;DHT22;2239;48.152;11.584;2023-11-19T15:21:28;13.60;99.90
4453;DHT22;2239;48.152;11.584;2023-11-19T15:23:55;13.50;99.90
4453;DHT22;2239;48.152;11.584;2023-11-19T15:26:21;13.50;99.90
4453;DHT22;2239;48.152;11.584;2023-11-19T15:28:47;13.40;99.90
4453;DHT22;2239;48.152;11.584;2023-11-19T15:31:13;13.40;99.90
4453;DHT22;2239;48.152;11.584;2023-11-19T15:33:41;13.30;99.90
4453;DHT22;2239;48.152;11.584;2023-11-19T15:36:07;13.30;99.90
4453;DHT22;2239;48.152;11.584;2023-11-19T15:38:34;13.30;99.90
4453;DHT22;2239;48.152;11.584;2023-11-19T15:40:59;13.20;99.90
4453;DHT22;2239;48.152;11.584;2023-11-19T15:43:25;13.20;99.90
4453;DHT22;2239;48.152;11.584;2023-11-19T15:45:50;13.10;99.90
4453;DHT22;2239;48.152;11.584;2023-11-19T15:48:16;13.00;99.90
4453;DHT22;2239;48.152;11.584;2023-11-19T15:50:43;13.00;99.90
4453;DHT22;2239;48.152;11.584;2023-11-19T15:53:10;12.90;99.90
4453;DHT22;2239;48.152;11.584;2023-11-19T15:55:36;12.90;99.90
4453;DHT22;2239;48.152;11.584;2023-11-19T15:58:01;12.90;99.90
4453;DHT22;2239;48.152;11.584;2023-11-19T16:00:27;12.80;99.90
4453;DHT22;2239;48.152;11.584;2023-11-19T16:02:52;12.80;99.90
4453;DHT22;2239;48.152;11.584;2023-11-19T16:05:19;12.80;99.90
4453;DHT22;2239;48.152;11.584;2023-11-19T16:07:44;12.70;99.90
4453;DHT22;2239;48.152;11.584;2023-11-19T16:10:10;12.80;99.90
4453;DHT22;2239;48.152;11.584;2023-11-19T16:12:38;12.80;99.90
4453;DHT22;2239;48.152;11.584;2023-11-19T16:15:05;12.80;99.90